sensor_id;sensor_type;location;lat;lon;timestamp;P1;durP1;ratioP1;P2;durP2;ratioP2
18146;SDS011;9199;48.832;9.182;2023-12-20T00:02:14;4.57;;;1.67;;
18146;SDS011;9199;48.832;9.182;2023-12-20T00:04:40;3.05;;;1.40;;
18146;SDS011;9199;48.832;9.182;2023-12-20T00:07:07;3.95;;;1.40;;
18146;SDS011;9199;48.832;9.182;2023-12-20T00:09:34;3.92;;;1.60;;
18146;SDS011;9199;48.832;9.182;2023-12-20T00:12:00;3.55;;;1.50;;
18146;SDS011;9199;48.832;9.182;2023-12-20T00:14:27;2.13;;;1.17;;
18146;SDS011;9199;48.832;9.182;2023-12-20T00:16:55;4.43;;;1.60;;
18146;SDS011;9199;48.832;9.182;2023-12-20T00:19:22;3.85;;;1.65;;
18146;SDS011;9199;48.832;9.182;2023-12-20T00:21:49;3.13;;;1.30;;
18146;SDS011;9199;48.832;9.182;2023-12-20T00:24:16;3.30;;;1.25;;
18146;SDS011;9199;48.832;9.182;2023-12-20T00:26:42;3.40;;;1.33;;
18146;SDS011;9199;48.832;9.182;2023-12-20T00:29:09;3.13;;;1.20;;
18146;SDS011;9199;48.832;9.182;2023-12-20T00:31:36;3.20;;;1.30;;
18146;SDS011;9199;48.832;9.182;2023-12-20T00:34:04;4.40;;;1.40;;
18146;SDS011;9199;48.832;9.182;2023-12-20T00:36:30;3.60;;;1.40;;
18146;SDS011;9199;48.832;9.182;2023-12-20T00:38:57;4.67;;;1.40;;
18146;SDS011;9199;48.832;9.182;2023-12-20T00:41:24;5.10;;;1.58;;
18146;SDS011;9199;48.832;9.182;2023-12-20T00:43:51;3.80;;;1.50;;
18146;SDS011;9199;48.832;9.182;2023-12-20T00:46:17;4.32;;;1.45;;
18146;SDS011;9199;48.832;9.182;2023-12-20T00:48:44;3.30;;;1.50;;
18146;SDS011;9199;48.832;9.182;2023-12-20T00:51:13;3.47;;;1.50;;
18146;SDS011;9199;48.832;9.182;2023-12-20T00:53:39;2.90;;;1.65;;
18146;SDS011;9199;48.832;9.182;2023-12-20T00:56:06;3.70;;;1.50;;
18146;SDS011;9199;48.832;9.182;2023-12-20T00:58:33;4.05;;;1.58;;
18146;SDS011;9199;48.832;9.182;2023-12-20T01:01:00;4.90;;;1.70;;
18146;SDS011;9199;48.832;9.182;2023-12-20T01:03:26;4.23;;;1.73;;
18146;SDS011;9199;48.832;9.182;2023-12-20T01:05:53;4.13;;;1.73;;
18146;SDS011;9199;48.832;9.182;2023-12-20T01:08:21;4.22;;;1.75;;
18146;SDS011;9199;48.832;9.182;2023-12-20T01:10:48;4.07;;;1.77;;
18146;SDS011;9199;48.832;9.182;2023-12-20T01:13:15;4.60;;;2.10;;
18146;SDS011;9199;48.832;9.182;2023-12-20T01:15:42;4.20;;;2.20;;
18146;SDS011;9199;48.832;9.182;2023-12-20T01:18:08;4.38;;;2.00;;
18146;SDS011;9199;48.832;9.182;2023-12-20T01:20:35;5.22;;;2.22;;
18146;SDS011;9199;48.832;9.182;2023-12-20T01:23:02;4.35;;;2.30;;
18146;SDS011;9199;48.832;9.182;2023-12-20T01:25:30;4.30;;;1.95;;
18146;SDS011;9199;48.832;9.182;2023-12-20T01:27:57;3.80;;;2.00;;
18146;SDS011;9199;48.832;9.182;2023-12-20T01:30:23;4.97;;;2.35;;
18146;SDS011;9199;48.832;9.182;2023-12-20T01:32:50;5.95;;;2.53;;
18146;SDS011;9199;48.832;9.182;2023-12-20T01:35:17;4.53;;;2.40;;
18146;SDS011;9199;48.832;9.182;2023-12-20T01:37:43;4.30;;;2.25;;
18146;SDS011;9199;48.832;9.182;2023-12-20T01:40:10;7.13;;;2.50;;
18146;SDS011;9199;48.832;9.182;2023-12-20T01:42:38;5.60;;;2.65;;
18146;SDS011;9199;48.832;9.182;2023-12-20T01:45:05;6.32;;;2.35;;
18146;SDS011;9199;48.832;9.182;2023-12-20T01:47:32;5.78;;;2.63;;
18146;SDS011;9199;48.832;9.182;2023-12-20T01:49:59;4.80;;;2.53;;
18146;SDS011;9199;48.832;9.182;2023-12-20T01:52:28;7.10;;;2.70;;
18146;SDS011;9199;48.832;9.182;2023-12-20T01:54:56;4.63;;;2.45;;
18146;SDS011;9199;48.832;9.182;2023-12-20T01:57:27;5.40;;;2.42;;
18146;SDS011;9199;48.832;9.182;2023-12-20T01:59:56;4.50;;;2.30;;
18146;SDS011;9199;48.832;9.182;2023-12-20T02:02:23;4.65;;;2.50;;
18146;SDS011;9199;48.832;9.182;2023-12-20T02:04:50;4.17;;;2.30;;
18146;SDS011;9199;48.832;9.182;2023-12-20T02:07:17;5.03;;;2.50;;
18146;SDS011;9199;48.832;9.182;2023-12-20T02:09:45;5.80;;;2.92;;
18146;SDS011;9199;48.832;9.182;2023-12-20T02:12:13;6.45;;;2.47;;
18146;SDS011;9199;48.832;9.182;2023-12-20T02:14:39;7.07;;;2.78;;
18146;SDS011;9199;48.832;9.182;2023-12-20T02:17:07;7.33;;;3.10;;
18146;SDS011;9199;48.832;9.182;2023-12-20T02:19:34;7.18;;;3.55;;
18146;SDS011;9199;48.832;9.182;2023-12-20T02:22:09;7.03;;;2.90;;
18146;SDS011;9199;48.832;9.182;2023-12-20T02:24:36;6.10;;;3.03;;
18146;SDS011;9199;48.832;9.182;2023-12-20T02:27:03;7.30;;;3.38;;
18146;SDS011;9199;48.832;9.182;2023-12-20T02:29:32;6.83;;;3.50;;
18146;SDS011;9199;48.832;9.182;2023-12-20T02:31:59;6.22;;;3.15;;
18146;SDS011;9199;48.832;9.182;2023-12-20T02:34:25;5.95;;;3.35;;
18146;SDS011;9199;48.832;9.182;2023-12-20T02:36:52;6.45;;;3.20;;
18146;SDS011;9199;48.832;9.182;2023-12-20T02:39:20;6.57;;;3.10;;
18146;SDS011;9199;48.832;9.182;2023-12-20T02:41:48;6.77;;;3.33;;
18146;SDS011;9199;48.832;9.182;2023-12-20T02:44:15;6.63;;;3.53;;
18146;SDS011;9199;48.832;9.182;2023-12-20T02:46:42;7.03;;;3.35;;
18146;SDS011;9199;48.832;9.182;2023-12-20T02:49:08;5.88;;;3.47;;
18146;SDS011;9199;48.832;9.182;2023-12-20T02:51:35;6.20;;;3.67;;
18146;SDS011;9199;48.832;9.182;2023-12-20T02:54:03;6.23;;;3.80;;
18146;SDS011;9199;48.832;9.182;2023-12-20T02:56:32;6.70;;;2.65;;
18146;SDS011;9199;48.832;9.182;2023-12-20T02:58:58;5.50;;;2.50;;
18146;SDS011;9199;48.832;9.182;2023-12-20T03:01:25;4.78;;;2.00;;
18146;SDS011;9199;48.832;9.182;2023-12-20T03:03:52;3.58;;;1.10;;
18146;SDS011;9199;48.832;9.182;2023-12-20T03:06:19;3.03;;;0.80;;
18146;SDS011;9199;48.832;9.182;2023-12-20T03:08:46;1.60;;;0.65;;
18146;SDS011;9199;48.832;9.182;2023-12-20T03:11:12;2.03;;;0.70;;
18146;SDS011;9199;48.832;9.182;2023-12-20T03:13:40;0.77;;;0.40;;
18146;SDS011;9199;48.832;9.182;2023-12-20T03:16:08;0.90;;;0.50;;
18146;SDS011;9199;48.832;9.182;2023-12-20T03:18:35;0.90;;;0.40;;
18146;SDS011;9199;48.832;9.182;2023-12-20T03:21:02;1.75;;;0.40;;
18146;SDS011;9199;48.832;9.182;2023-12-20T03:23:29;1.20;;;0.47;;
18146;SDS011;9199;48.832;9.182;2023-12-20T03:25:57;1.13;;;0.50;;
18146;SDS011;9199;48.832;9.182;2023-12-20T03:28:24;1.30;;;0.50;;
18146;SDS011;9199;48.832;9.182;2023-12-20T03:30:52;0.70;;;0.30;;
18146;SDS011;9199;48.832;9.182;2023-12-20T03:33:18;1.23;;;0.40;;
18146;SDS011;9199;48.832;9.182;2023-12-20T03:35:45;1.88;;;0.50;;
18146;SDS011;9199;48.832;9.182;2023-12-20T03:38:12;0.68;;;0.30;;
18146;SDS011;9199;48.832;9.182;2023-12-20T03:40:38;1.35;;;0.50;;
18146;SDS011;9199;48.832;9.182;2023-12-20T03:43:05;1.60;;;0.50;;
18146;SDS011;9199;48.832;9.182;2023-12-20T03:45:33;1.55;;;0.40;;
18146;SDS011;9199;48.832;9.182;2023-12-20T03:48:01;0.70;;;0.40;;
18146;SDS011;9199;48.832;9.182;2023-12-20T03:50:28;1.08;;;0.50;;
18146;SDS011;9199;48.832;9.182;2023-12-20T03:52:55;1.02;;;0.40;;
18146;SDS011;9199;48.832;9.182;2023-12-20T03:55:22;1.00;;;0.30;;
18146;SDS011;9199;48.832;9.182;2023-12-20T03:57:48;1.10;;;0.40;;
18146;SDS011;9199;48.832;9.182;2023-12-20T04:00:15;1.20;;;0.47;;
18146;SDS011;9199;48.832;9.182;2023-12-20T04:02:42;0.98;;;0.50;;
18146;SDS011;9199;48.832;9.182;2023-12-20T04:05:10;0.93;;;0.40;;
18146;SDS011;9199;48.832;9.182;2023-12-20T04:07:37;1.13;;;0.50;;
18146;SDS011;9199;48.832;9.182;2023-12-20T04:10:04;1.88;;;0.60;;
18146;SDS011;9199;48.832;9.182;2023-12-20T04:12:32;1.52;;;0.45;;
18146;SDS011;9199;48.832;9.182;2023-12-20T04:14:59;1.08;;;0.47;;
18146;SDS011;9199;48.832;9.182;2023-12-20T04:17:25;1.73;;;0.40;;
18146;SDS011;9199;48.832;9.182;2023-12-20T04:19:52;1.23;;;0.50;;
18146;SDS011;9199;48.832;9.182;2023-12-20T04:22:20;2.15;;;0.50;;
18146;SDS011;9199;48.832;9.182;2023-12-20T04:24:47;1.30;;;0.50;;
18146;SDS011;9199;48.832;9.182;2023-12-20T04:27:14;1.30;;;0.60;;
18146;SDS011;9199;48.832;9.182;2023-12-20T04:29:40;1.35;;;0.50;;
18146;SDS011;9199;48.832;9.182;2023-12-20T04:32:07;1.53;;;0.50;;
18146;SDS011;9199;48.832;9.182;2023-12-20T04:34:34;1.15;;;0.50;;
18146;SDS011;9199;48.832;9.182;2023-12-20T04:37:00;1.02;;;0.50;;
18146;SDS011;9199;48.832;9.182;2023-12-20T04:39:29;0.80;;;0.40;;
18146;SDS011;9199;48.832;9.182;2023-12-20T04:41:55;0.90;;;0.40;;
18146;SDS011;9199;48.832;9.182;2023-12-20T04:44:22;1.17;;;0.40;;
18146;SDS011;9199;48.832;9.182;2023-12-20T04:46:49;1.38;;;0.50;;
18146;SDS011;9199;48.832;9.182;2023-12-20T04:49:16;2.38;;;0.70;;
18146;SDS011;9199;48.832;9.182;2023-12-20T04:51:43;4.45;;;0.60;;
18146;SDS011;9199;48.832;9.182;2023-12-20T04:54:09;0.95;;;0.50;;
18146;SDS011;9199;48.832;9.182;2023-12-20T04:56:38;1.03;;;0.50;;
18146;SDS011;9199;48.832;9.182;2023-12-20T04:59:04;0.98;;;0.40;;
18146;SDS011;9199;48.832;9.182;2023-12-20T05:01:31;1.13;;;0.60;;
18146;SDS011;9199;48.832;9.182;2023-12-20T05:03:58;2.25;;;0.75;;
18146;SDS011;9199;48.832;9.182;2023-12-20T05:06:25;2.63;;;0.70;;
18146;SDS011;9199;48.832;9.182;2023-12-20T05:08:52;1.63;;;0.60;;
18146;SDS011;9199;48.832;9.182;2023-12-20T05:11:19;1.10;;;0.45;;
18146;SDS011;9199;48.832;9.182;2023-12-20T05:13:47;1.27;;;0.47;;
18146;SDS011;9199;48.832;9.182;2023-12-20T05:16:13;1.63;;;0.38;;
18146;SDS011;9199;48.832;9.182;2023-12-20T05:18:42;2.13;;;0.43;;
18146;SDS011;9199;48.832;9.182;2023-12-20T05:21:09;2.33;;;0.57;;
18146;SDS011;9199;48.832;9.182;2023-12-20T05:23:36;1.50;;;0.52;;
18146;SDS011;9199;48.832;9.182;2023-12-20T05:26:02;2.38;;;0.50;;
18146;SDS011;9199;48.832;9.182;2023-12-20T05:28:29;1.17;;;0.57;;
18146;SDS011;9199;48.832;9.182;2023-12-20T05:30:57;1.33;;;0.50;;
18146;SDS011;9199;48.832;9.182;2023-12-20T05:33:24;2.83;;;0.60;;
18146;SDS011;9199;48.832;9.182;2023-12-20T05:35:51;1.42;;;0.68;;
18146;SDS011;9199;48.832;9.182;2023-12-20T05:38:18;1.73;;;0.65;;
18146;SDS011;9199;48.832;9.182;2023-12-20T05:40:44;2.22;;;0.60;;
18146;SDS011;9199;48.832;9.182;2023-12-20T05:43:11;2.85;;;0.90;;
18146;SDS011;9199;48.832;9.182;2023-12-20T05:45:38;1.57;;;0.70;;
18146;SDS011;9199;48.832;9.182;2023-12-20T05:48:06;1.42;;;0.70;;
18146;SDS011;9199;48.832;9.182;2023-12-20T05:50:33;2.45;;;0.75;;
18146;SDS011;9199;48.832;9.182;2023-12-20T05:53:00;2.05;;;0.63;;
18146;SDS011;9199;48.832;9.182;2023-12-20T05:55:27;3.20;;;0.60;;
18146;SDS011;9199;48.832;9.182;2023-12-20T05:57:53;1.40;;;0.70;;
18146;SDS011;9199;48.832;9.182;2023-12-20T06:00:20;3.20;;;1.17;;
18146;SDS011;9199;48.832;9.182;2023-12-20T06:02:47;2.45;;;1.02;;
18146;SDS011;9199;48.832;9.182;2023-12-20T06:05:15;4.40;;;0.90;;
18146;SDS011;9199;48.832;9.182;2023-12-20T06:07:41;1.88;;;0.70;;
18146;SDS011;9199;48.832;9.182;2023-12-20T06:10:09;1.43;;;0.57;;
18146;SDS011;9199;48.832;9.182;2023-12-20T06:12:36;2.28;;;0.80;;
18146;SDS011;9199;48.832;9.182;2023-12-20T06:15:03;1.95;;;0.70;;
18146;SDS011;9199;48.832;9.182;2023-12-20T06:17:31;2.10;;;0.60;;
18146;SDS011;9199;48.832;9.182;2023-12-20T06:19:58;3.17;;;0.60;;
18146;SDS011;9199;48.832;9.182;2023-12-20T06:22:27;5.20;;;1.00;;
18146;SDS011;9199;48.832;9.182;2023-12-20T06:24:53;2.10;;;0.90;;
18146;SDS011;9199;48.832;9.182;2023-12-20T06:27:20;2.20;;;0.80;;
18146;SDS011;9199;48.832;9.182;2023-12-20T06:29:47;2.08;;;0.80;;
18146;SDS011;9199;48.832;9.182;2023-12-20T06:32:13;2.38;;;0.95;;
18146;SDS011;9199;48.832;9.182;2023-12-20T06:34:40;2.27;;;1.00;;
18146;SDS011;9199;48.832;9.182;2023-12-20T06:37:07;1.85;;;0.75;;
18146;SDS011;9199;48.832;9.182;2023-12-20T06:39:35;3.20;;;1.00;;
18146;SDS011;9199;48.832;9.182;2023-12-20T06:42:02;2.85;;;0.90;;
18146;SDS011;9199;48.832;9.182;2023-12-20T06:44:29;2.78;;;1.10;;
18146;SDS011;9199;48.832;9.182;2023-12-20T06:46:56;4.73;;;1.40;;
18146;SDS011;9199;48.832;9.182;2023-12-20T06:49:23;3.20;;;1.30;;
18146;SDS011;9199;48.832;9.182;2023-12-20T06:51:50;3.03;;;1.48;;
18146;SDS011;9199;48.832;9.182;2023-12-20T06:54:17;3.78;;;1.30;;
18146;SDS011;9199;48.832;9.182;2023-12-20T06:56:45;3.40;;;1.45;;
18146;SDS011;9199;48.832;9.182;2023-12-20T06:59:11;3.10;;;1.53;;
18146;SDS011;9199;48.832;9.182;2023-12-20T07:01:38;4.82;;;1.52;;
18146;SDS011;9199;48.832;9.182;2023-12-20T07:04:05;3.95;;;1.60;;
18146;SDS011;9199;48.832;9.182;2023-12-20T07:06:32;3.95;;;1.83;;
18146;SDS011;9199;48.832;9.182;2023-12-20T07:08:58;4.28;;;2.40;;
18146;SDS011;9199;48.832;9.182;2023-12-20T07:11:25;4.93;;;2.30;;
18146;SDS011;9199;48.832;9.182;2023-12-20T07:13:53;4.43;;;2.60;;
18146;SDS011;9199;48.832;9.182;2023-12-20T07:16:20;4.65;;;2.63;;
18146;SDS011;9199;48.832;9.182;2023-12-20T07:18:47;7.38;;;3.40;;
18146;SDS011;9199;48.832;9.182;2023-12-20T07:21:14;6.38;;;3.38;;
18146;SDS011;9199;48.832;9.182;2023-12-20T07:23:41;5.13;;;3.00;;
18146;SDS011;9199;48.832;9.182;2023-12-20T07:26:07;4.97;;;2.97;;
18146;SDS011;9199;48.832;9.182;2023-12-20T07:28:34;4.72;;;2.90;;
18146;SDS011;9199;48.832;9.182;2023-12-20T07:31:02;5.32;;;3.10;;
18146;SDS011;9199;48.832;9.182;2023-12-20T07:33:29;6.93;;;2.90;;
18146;SDS011;9199;48.832;9.182;2023-12-20T07:35:56;5.67;;;3.10;;
18146;SDS011;9199;48.832;9.182;2023-12-20T07:38:23;5.10;;;3.05;;
18146;SDS011;9199;48.832;9.182;2023-12-20T07:40:49;4.97;;;2.85;;
18146;SDS011;9199;48.832;9.182;2023-12-20T07:43:16;4.72;;;2.70;;
18146;SDS011;9199;48.832;9.182;2023-12-20T07:45:43;4.18;;;2.63;;
18146;SDS011;9199;48.832;9.182;2023-12-20T07:48:11;4.17;;;2.70;;
18146;SDS011;9199;48.832;9.182;2023-12-20T07:50:38;5.82;;;3.00;;
18146;SDS011;9199;48.832;9.182;2023-12-20T07:53:04;3.95;;;2.53;;
18146;SDS011;9199;48.832;9.182;2023-12-20T07:55:31;5.25;;;2.97;;
18146;SDS011;9199;48.832;9.182;2023-12-20T07:57:58;5.43;;;2.47;;
18146;SDS011;9199;48.832;9.182;2023-12-20T08:00:25;5.90;;;2.63;;
18146;SDS011;9199;48.832;9.182;2023-12-20T08:02:51;4.70;;;2.80;;
18146;SDS011;9199;48.832;9.182;2023-12-20T08:05:19;5.07;;;2.65;;
18146;SDS011;9199;48.832;9.182;2023-12-20T08:07:46;5.07;;;2.70;;
18146;SDS011;9199;48.832;9.182;2023-12-20T08:10:13;6.32;;;3.13;;
18146;SDS011;9199;48.832;9.182;2023-12-20T08:12:39;6.93;;;3.57;;
18146;SDS011;9199;48.832;9.182;2023-12-20T08:15:06;5.45;;;3.33;;
18146;SDS011;9199;48.832;9.182;2023-12-20T08:17:33;5.00;;;3.13;;
18146;SDS011;9199;48.832;9.182;2023-12-20T08:20:00;8.13;;;3.00;;
18146;SDS011;9199;48.832;9.182;2023-12-20T08:22:28;4.80;;;3.05;;
18146;SDS011;9199;48.832;9.182;2023-12-20T08:24:55;5.10;;;3.17;;
18146;SDS011;9199;48.832;9.182;2023-12-20T08:27:21;6.28;;;2.92;;
18146;SDS011;9199;48.832;9.182;2023-12-20T08:29:48;5.15;;;3.10;;
18146;SDS011;9199;48.832;9.182;2023-12-20T08:32:15;6.00;;;3.33;;
18146;SDS011;9199;48.832;9.182;2023-12-20T08:34:42;5.47;;;3.33;;
18146;SDS011;9199;48.832;9.182;2023-12-20T08:37:09;6.53;;;3.23;;
18146;SDS011;9199;48.832;9.182;2023-12-20T08:39:37;6.90;;;3.25;;
18146;SDS011;9199;48.832;9.182;2023-12-20T08:42:03;4.65;;;2.95;;
18146;SDS011;9199;48.832;9.182;2023-12-20T08:44:30;4.50;;;2.70;;
18146;SDS011;9199;48.832;9.182;2023-12-20T08:46:57;7.93;;;3.10;;
18146;SDS011;9199;48.832;9.182;2023-12-20T08:49:24;5.20;;;2.83;;
18146;SDS011;9199;48.832;9.182;2023-12-20T08:51:51;6.75;;;3.00;;
18146;SDS011;9199;48.832;9.182;2023-12-20T08:54:17;7.65;;;2.80;;
18146;SDS011;9199;48.832;9.182;2023-12-20T08:56:45;5.13;;;2.80;;
18146;SDS011;9199;48.832;9.182;2023-12-20T08:59:12;5.78;;;2.60;;
18146;SDS011;9199;48.832;9.182;2023-12-20T09:01:39;4.50;;;2.90;;
18146;SDS011;9199;48.832;9.182;2023-12-20T09:04:06;7.10;;;2.63;;
18146;SDS011;9199;48.832;9.182;2023-12-20T09:06:32;5.38;;;2.47;;
18146;SDS011;9199;48.832;9.182;2023-12-20T09:08:59;5.65;;;2.60;;
18146;SDS011;9199;48.832;9.182;2023-12-20T09:11:26;4.70;;;2.50;;
18146;SDS011;9199;48.832;9.182;2023-12-20T09:13:54;5.23;;;2.30;;
18146;SDS011;9199;48.832;9.182;2023-12-20T09:16:20;4.97;;;2.45;;
18146;SDS011;9199;48.832;9.182;2023-12-20T09:18:47;4.90;;;2.33;;
18146;SDS011;9199;48.832;9.182;2023-12-20T09:21:14;6.03;;;2.35;;
18146;SDS011;9199;48.832;9.182;2023-12-20T09:23:41;4.22;;;1.95;;
18146;SDS011;9199;48.832;9.182;2023-12-20T09:26:07;4.50;;;2.10;;
18146;SDS011;9199;48.832;9.182;2023-12-20T09:28:34;5.43;;;2.10;;
18146;SDS011;9199;48.832;9.182;2023-12-20T09:31:03;5.40;;;1.92;;
18146;SDS011;9199;48.832;9.182;2023-12-20T09:33:30;3.92;;;1.70;;
18146;SDS011;9199;48.832;9.182;2023-12-20T09:35:57;4.10;;;1.60;;
18146;SDS011;9199;48.832;9.182;2023-12-20T09:38:24;5.73;;;1.50;;
18146;SDS011;9199;48.832;9.182;2023-12-20T09:40:51;4.90;;;1.30;;
18146;SDS011;9199;48.832;9.182;2023-12-20T09:43:19;5.28;;;1.40;;
18146;SDS011;9199;48.832;9.182;2023-12-20T09:45:49;6.00;;;1.30;;
18146;SDS011;9199;48.832;9.182;2023-12-20T09:48:21;4.00;;;1.08;;
18146;SDS011;9199;48.832;9.182;2023-12-20T09:50:47;5.20;;;1.20;;
18146;SDS011;9199;48.832;9.182;2023-12-20T09:53:15;4.85;;;1.30;;
18146;SDS011;9199;48.832;9.182;2023-12-20T09:55:43;3.42;;;1.30;;
18146;SDS011;9199;48.832;9.182;2023-12-20T09:58:10;3.97;;;1.20;;
18146;SDS011;9199;48.832;9.182;2023-12-20T10:00:37;7.97;;;1.45;;
18146;SDS011;9199;48.832;9.182;2023-12-20T10:03:04;5.43;;;1.20;;
18146;SDS011;9199;48.832;9.182;2023-12-20T10:05:34;4.53;;;1.00;;
18146;SDS011;9199;48.832;9.182;2023-12-20T10:08:01;4.40;;;1.15;;
18146;SDS011;9199;48.832;9.182;2023-12-20T10:10:28;7.20;;;1.10;;
18146;SDS011;9199;48.832;9.182;2023-12-20T10:13:01;6.68;;;1.27;;
18146;SDS011;9199;48.832;9.182;2023-12-20T10:15:29;6.13;;;0.80;;
18146;SDS011;9199;48.832;9.182;2023-12-20T10:17:56;6.13;;;1.10;;
18146;SDS011;9199;48.832;9.182;2023-12-20T10:20:23;9.10;;;1.20;;
18146;SDS011;9199;48.832;9.182;2023-12-20T10:22:51;3.42;;;1.00;;
18146;SDS011;9199;48.832;9.182;2023-12-20T10:25:19;7.00;;;1.60;;
18146;SDS011;9199;48.832;9.182;2023-12-20T10:27:46;4.47;;;1.20;;
18146;SDS011;9199;48.832;9.182;2023-12-20T10:30:13;5.75;;;1.17;;
18146;SDS011;9199;48.832;9.182;2023-12-20T10:32:40;5.47;;;1.10;;
18146;SDS011;9199;48.832;9.182;2023-12-20T10:35:07;4.38;;;1.40;;
18146;SDS011;9199;48.832;9.182;2023-12-20T10:37:35;6.70;;;1.70;;
18146;SDS011;9199;48.832;9.182;2023-12-20T10:40:03;5.37;;;1.40;;
18146;SDS011;9199;48.832;9.182;2023-12-20T10:42:31;8.00;;;1.40;;
18146;SDS011;9199;48.832;9.182;2023-12-20T10:44:59;6.70;;;1.70;;
18146;SDS011;9199;48.832;9.182;2023-12-20T10:47:26;7.82;;;1.15;;
18146;SDS011;9199;48.832;9.182;2023-12-20T10:49:53;4.95;;;1.15;;
18146;SDS011;9199;48.832;9.182;2023-12-20T10:52:21;3.77;;;1.10;;
18146;SDS011;9199;48.832;9.182;2023-12-20T10:54:49;5.28;;;1.13;;
18146;SDS011;9199;48.832;9.182;2023-12-20T10:57:18;3.97;;;1.00;;
18146;SDS011;9199;48.832;9.182;2023-12-20T10:59:45;5.53;;;1.13;;
18146;SDS011;9199;48.832;9.182;2023-12-20T11:02:14;6.65;;;1.30;;
18146;SDS011;9199;48.832;9.182;2023-12-20T11:04:43;5.97;;;1.27;;
18146;SDS011;9199;48.832;9.182;2023-12-20T11:07:17;9.35;;;1.50;;
18146;SDS011;9199;48.832;9.182;2023-12-20T11:09:49;5.95;;;1.08;;
18146;SDS011;9199;48.832;9.182;2023-12-20T11:12:27;3.47;;;0.90;;
18146;SDS011;9199;48.832;9.182;2023-12-20T11:15:01;4.53;;;1.40;;
18146;SDS011;9199;48.832;9.182;2023-12-20T11:17:29;5.57;;;1.00;;
18146;SDS011;9199;48.832;9.182;2023-12-20T11:20:05;6.82;;;1.35;;
18146;SDS011;9199;48.832;9.182;2023-12-20T11:22:37;5.53;;;1.40;;
18146;SDS011;9199;48.832;9.182;2023-12-20T11:25:07;6.80;;;1.20;;
18146;SDS011;9199;48.832;9.182;2023-12-20T11:27:36;6.30;;;1.38;;
18146;SDS011;9199;48.832;9.182;2023-12-20T11:30:06;7.57;;;1.30;;
18146;SDS011;9199;48.832;9.182;2023-12-20T11:32:35;7.70;;;1.40;;
18146;SDS011;9199;48.832;9.182;2023-12-20T11:35:16;4.38;;;1.40;;
18146;SDS011;9199;48.832;9.182;2023-12-20T11:37:44;6.75;;;1.13;;
18146;SDS011;9199;48.832;9.182;2023-12-20T11:40:13;8.35;;;1.85;;
18146;SDS011;9199;48.832;9.182;2023-12-20T11:42:43;5.57;;;1.30;;
18146;SDS011;9199;48.832;9.182;2023-12-20T11:45:11;5.43;;;1.40;;
18146;SDS011;9199;48.832;9.182;2023-12-20T11:47:40;6.88;;;1.38;;
18146;SDS011;9199;48.832;9.182;2023-12-20T11:50:08;6.90;;;1.25;;
18146;SDS011;9199;48.832;9.182;2023-12-20T11:52:35;4.90;;;1.20;;
18146;SDS011;9199;48.832;9.182;2023-12-20T11:55:02;5.47;;;1.20;;
18146;SDS011;9199;48.832;9.182;2023-12-20T11:57:29;10.48;;;1.38;;
18146;SDS011;9199;48.832;9.182;2023-12-20T11:59:57;11.05;;;1.63;;
18146;SDS011;9199;48.832;9.182;2023-12-20T12:02:24;7.72;;;1.50;;
18146;SDS011;9199;48.832;9.182;2023-12-20T12:04:51;6.75;;;1.63;;
18146;SDS011;9199;48.832;9.182;2023-12-20T12:07:18;4.90;;;1.37;;
18146;SDS011;9199;48.832;9.182;2023-12-20T12:09:45;7.32;;;1.30;;
18146;SDS011;9199;48.832;9.182;2023-12-20T12:12:11;6.00;;;1.60;;
18146;SDS011;9199;48.832;9.182;2023-12-20T12:14:39;6.93;;;1.55;;
18146;SDS011;9199;48.832;9.182;2023-12-20T12:17:11;4.47;;;1.20;;
18146;SDS011;9199;48.832;9.182;2023-12-20T12:19:38;6.77;;;1.40;;
18146;SDS011;9199;48.832;9.182;2023-12-20T12:22:05;3.95;;;1.42;;
18146;SDS011;9199;48.832;9.182;2023-12-20T12:24:35;7.28;;;1.30;;
18146;SDS011;9199;48.832;9.182;2023-12-20T12:27:02;4.93;;;1.30;;
18146;SDS011;9199;48.832;9.182;2023-12-20T12:29:29;5.38;;;1.30;;
18146;SDS011;9199;48.832;9.182;2023-12-20T12:31:55;5.60;;;1.50;;
18146;SDS011;9199;48.832;9.182;2023-12-20T12:34:24;4.68;;;1.40;;
18146;SDS011;9199;48.832;9.182;2023-12-20T12:36:53;6.13;;;1.30;;
18146;SDS011;9199;48.832;9.182;2023-12-20T12:39:19;5.43;;;1.48;;
18146;SDS011;9199;48.832;9.182;2023-12-20T12:41:46;5.65;;;1.42;;
18146;SDS011;9199;48.832;9.182;2023-12-20T12:44:13;6.53;;;1.60;;
18146;SDS011;9199;48.832;9.182;2023-12-20T12:46:39;4.60;;;1.30;;
18146;SDS011;9199;48.832;9.182;2023-12-20T12:49:06;5.78;;;1.65;;
18146;SDS011;9199;48.832;9.182;2023-12-20T12:51:34;7.40;;;1.95;;
18146;SDS011;9199;48.832;9.182;2023-12-20T12:54:01;5.57;;;1.40;;
18146;SDS011;9199;48.832;9.182;2023-12-20T12:56:28;8.27;;;1.90;;
18146;SDS011;9199;48.832;9.182;2023-12-20T12:58:55;8.27;;;1.50;;
18146;SDS011;9199;48.832;9.182;2023-12-20T13:01:22;9.45;;;1.33;;
18146;SDS011;9199;48.832;9.182;2023-12-20T13:03:48;6.15;;;1.52;;
18146;SDS011;9199;48.832;9.182;2023-12-20T13:06:15;5.47;;;1.20;;
18146;SDS011;9199;48.832;9.182;2023-12-20T13:08:44;6.90;;;1.20;;
18146;SDS011;9199;48.832;9.182;2023-12-20T13:11:11;5.97;;;1.17;;
18146;SDS011;9199;48.832;9.182;2023-12-20T13:13:38;5.90;;;1.40;;
18146;SDS011;9199;48.832;9.182;2023-12-20T13:16:04;5.03;;;1.08;;
18146;SDS011;9199;48.832;9.182;2023-12-20T13:18:31;4.00;;;0.95;;
18146;SDS011;9199;48.832;9.182;2023-12-20T13:20:58;4.10;;;1.20;;
18146;SDS011;9199;48.832;9.182;2023-12-20T13:23:25;4.05;;;1.00;;
18146;SDS011;9199;48.832;9.182;2023-12-20T13:25:53;5.57;;;1.00;;
18146;SDS011;9199;48.832;9.182;2023-12-20T13:28:20;6.50;;;1.25;;
18146;SDS011;9199;48.832;9.182;2023-12-20T13:30:46;8.73;;;1.02;;
18146;SDS011;9199;48.832;9.182;2023-12-20T13:33:13;6.57;;;1.27;;
18146;SDS011;9199;48.832;9.182;2023-12-20T13:35:40;7.03;;;1.20;;
18146;SDS011;9199;48.832;9.182;2023-12-20T13:38:07;9.45;;;1.45;;
18146;SDS011;9199;48.832;9.182;2023-12-20T13:40:33;4.65;;;0.88;;
18146;SDS011;9199;48.832;9.182;2023-12-20T13:43:02;6.35;;;1.17;;
18146;SDS011;9199;48.832;9.182;2023-12-20T13:45:29;4.70;;;1.20;;
18146;SDS011;9199;48.832;9.182;2023-12-20T13:47:55;4.35;;;1.20;;
18146;SDS011;9199;48.832;9.182;2023-12-20T13:50:23;5.25;;;1.00;;
18146;SDS011;9199;48.832;9.182;2023-12-20T13:52:51;4.00;;;1.00;;
18146;SDS011;9199;48.832;9.182;2023-12-20T13:55:18;6.25;;;1.50;;
18146;SDS011;9199;48.832;9.182;2023-12-20T13:57:47;5.70;;;1.10;;
18146;SDS011;9199;48.832;9.182;2023-12-20T14:00:15;4.60;;;1.17;;
18146;SDS011;9199;48.832;9.182;2023-12-20T14:02:42;5.80;;;1.17;;
18146;SDS011;9199;48.832;9.182;2023-12-20T14:05:09;6.10;;;1.10;;
18146;SDS011;9199;48.832;9.182;2023-12-20T14:07:36;5.95;;;1.20;;
18146;SDS011;9199;48.832;9.182;2023-12-20T14:10:03;5.97;;;1.27;;
18146;SDS011;9199;48.832;9.182;2023-12-20T14:12:31;6.63;;;1.48;;
18146;SDS011;9199;48.832;9.182;2023-12-20T14:15:01;5.90;;;1.30;;
18146;SDS011;9199;48.832;9.182;2023-12-20T14:17:29;7.30;;;2.55;;
18146;SDS011;9199;48.832;9.182;2023-12-20T14:19:56;8.70;;;3.30;;
18146;SDS011;9199;48.832;9.182;2023-12-20T14:22:23;8.17;;;1.70;;
18146;SDS011;9199;48.832;9.182;2023-12-20T14:24:50;5.43;;;1.45;;
18146;SDS011;9199;48.832;9.182;2023-12-20T14:27:17;6.88;;;1.40;;
18146;SDS011;9199;48.832;9.182;2023-12-20T14:29:46;6.15;;;1.40;;
18146;SDS011;9199;48.832;9.182;2023-12-20T14:32:13;7.30;;;1.30;;
18146;SDS011;9199;48.832;9.182;2023-12-20T14:34:42;4.03;;;1.20;;
18146;SDS011;9199;48.832;9.182;2023-12-20T14:37:08;9.57;;;1.70;;
18146;SDS011;9199;48.832;9.182;2023-12-20T14:39:35;8.85;;;1.65;;
18146;SDS011;9199;48.832;9.182;2023-12-20T14:42:04;6.10;;;1.50;;
18146;SDS011;9199;48.832;9.182;2023-12-20T14:44:31;4.90;;;1.20;;
18146;SDS011;9199;48.832;9.182;2023-12-20T14:46:58;6.70;;;1.40;;
18146;SDS011;9199;48.832;9.182;2023-12-20T14:49:27;5.55;;;1.40;;
18146;SDS011;9199;48.832;9.182;2023-12-20T14:51:55;11.48;;;1.67;;
18146;SDS011;9199;48.832;9.182;2023-12-20T14:54:23;5.55;;;1.30;;
18146;SDS011;9199;48.832;9.182;2023-12-20T14:56:50;6.80;;;1.40;;
18146;SDS011;9199;48.832;9.182;2023-12-20T14:59:16;7.43;;;1.60;;
18146;SDS011;9199;48.832;9.182;2023-12-20T15:01:43;4.00;;;1.52;;